Time;durP1;ratioP1;P1;durP2;ratioP2;P2;SDS_P1;SDS_P2;PMS_P1;PMS_P2;Temp;Humidity;BMP_temperature;BMP_pressure;BME280_temperature;BME280_humidity;BME280_pressure;Samples;Min_cycle;Max_cycle;Signal;HPM_P1;HPM_P2
2023/07/31 00:01:17;;;;;;;2.40;1.67;;;;;;;22.93;100.00;100021.84;5072082;28;20028;-72
2023/07/31 00:03:43;;;;;;;2.33;1.73;;;;;;;22.83;100.00;99943.13;5054567;28;20506;-72
2023/07/31 00:06:08;;;;;;;2.33;1.55;;;;;;;22.97;100.00;99995.56;5071962;28;20089;-71
2023/07/31 00:08:33;;;;;;;3.95;1.90;;;;;;;23.42;100.00;100016.22;5072441;28;20468;-72
2023/07/31 00:10:59;;;;;;;3.78;1.50;;;;;;;22.87;100.00;99965.28;5072296;28;20032;-73
2023/07/31 00:13:24;;;;;;;2.42;1.70;;;;;;;23.08;100.00;99981.72;5071642;28;20037;-72
2023/07/31 00:15:50;;;;;;;3.20;1.70;;;;;;;23.33;100.00;100022.16;5053255;28;20542;-73
2023/07/31 00:18:15;;;;;;;2.67;1.70;;;;;;;22.89;100.00;99968.56;5071738;28;20101;-73
2023/07/31 00:20:41;;;;;;;2.00;1.77;;;;;;;23.12;100.00;99952.00;5071994;28;20051;-74
2023/07/31 00:23:06;;;;;;;3.38;1.60;;;;;;;23.03;100.00;99961.34;5071827;28;20111;-73
2023/07/31 00:25:32;;;;;;;2.60;1.60;;;;;;;23.33;100.00;99991.84;5071431;28;20067;-73
2023/07/31 00:27:57;;;;;;;2.35;1.80;;;;;;;23.03;100.00;99953.56;5071930;28;20036;-72
2023/07/31 00:30:25;;;;;;;3.58;1.75;;;;;;;22.86;100.00;99938.50;5071880;28;20059;-74
2023/07/31 00:32:50;;;;;;;2.80;1.60;;;;;;;23.08;100.00;99989.50;5071773;28;20036;-74
2023/07/31 00:35:16;;;;;;;2.53;1.80;;;;;;;23.27;100.00;99990.50;5071947;28;20051;-74
2023/07/31 00:37:41;;;;;;;4.93;1.77;;;;;;;23.15;100.00;99969.91;5071560;28;20115;-73
2023/07/31 00:40:07;;;;;;;4.63;1.60;;;;;;;23.03;100.00;99965.72;5071460;28;20068;-73
2023/07/31 00:42:33;;;;;;;2.88;1.70;;;;;;;22.87;100.00;99940.16;5071120;28;20021;-73
2023/07/31 00:44:58;;;;;;;2.22;1.63;;;;;;;22.29;100.00;99899.81;5071686;28;20024;-73
2023/07/31 00:47:23;;;;;;;2.58;1.60;;;;;;;22.73;100.00;99947.38;5054277;28;20411;-73
2023/07/31 00:49:49;;;;;;;3.33;1.60;;;;;;;22.84;100.00;99945.59;5071589;28;20052;-73
2023/07/31 00:52:14;;;;;;;2.97;1.80;;;;;;;22.65;100.00;99896.13;5071570;28;20067;-73
2023/07/31 00:54:40;;;;;;;3.10;2.00;;;;;;;22.14;100.00;99867.31;5053782;28;20487;-73
2023/07/31 00:57:08;;;;;;;2.78;1.80;;;;;;;22.75;100.00;99928.16;5071495;28;20039;-73
2023/07/31 00:59:33;;;;;;;4.00;1.98;;;;;;;21.71;100.00;99824.91;5070982;28;20081;-73
2023/07/31 01:01:59;;;;;;;3.22;1.80;;;;;;;22.07;100.00;99876.50;5071017;28;20036;-73
2023/07/31 01:04:25;;;;;;;1.80;1.60;;;;;;;22.38;100.00;99899.06;5071276;28;20085;-73
2023/07/31 01:07:18;;;;;;;3.53;1.83;;;;;;;22.32;100.00;99901.34;5071246;28;20059;-73
2023/07/31 01:10:07;;;;;;;3.75;1.85;;;;;;;21.95;100.00;99838.59;5071928;28;20056;-73
2023/07/31 01:12:34;;;;;;;2.40;1.63;;;;;;;22.30;100.00;99900.63;5050695;28;20036;-74
2023/07/31 01:15:03;;;;;;;6.35;2.05;;;;;;;22.57;100.00;99901.09;5076793;28;20028;-73
2023/07/31 01:17:29;;;;;;;2.88;2.10;;;;;;;22.53;100.00;99888.47;5072015;28;20491;-73
2023/07/31 01:19:58;;;;;;;3.10;2.17;;;;;;;22.26;100.00;99844.81;5071100;28;20060;-73
2023/07/31 01:22:40;;;;;;;5.00;2.00;;;;;;;21.95;100.00;99817.88;5070899;28;20081;-72
2023/07/31 01:25:06;;;;;;;2.95;1.92;;;;;;;22.56;100.00;99896.00;5053026;28;20033;-73
2023/07/31 01:27:37;;;;;;;4.72;2.05;;;;;;;22.36;100.00;99854.31;5071336;28;20399;-73
2023/07/31 01:30:14;;;;;;;4.82;1.70;;;;;;;22.18;100.00;99886.88;5071299;28;20146;-73
2023/07/31 01:32:42;;;;;;;4.13;2.20;;;;;;;21.56;100.00;99811.38;5071382;28;20490;-72
2023/07/31 01:35:08;;;;;;;2.97;1.70;;;;;;;22.09;100.00;99830.59;5059937;28;20044;-75
2023/07/31 01:37:34;;;;;;;4.07;2.10;;;;;;;22.50;100.00;99889.53;5051176;28;20123;-73
2023/07/31 01:39:59;;;;;;;4.85;2.10;;;;;;;22.10;100.00;99842.59;5033338;28;20455;-74
2023/07/31 01:42:25;;;;;;;4.05;1.95;;;;;;;22.25;100.00;99864.72;5050969;28;20530;-74
2023/07/31 01:44:50;;;;;;;3.20;1.88;;;;;;;22.54;100.00;99883.16;5051192;28;20061;-75
2023/07/31 01:47:15;;;;;;;4.63;2.10;;;;;;;22.44;100.00;99875.28;5050558;28;20040;-75
2023/07/31 01:49:41;;;;;;;3.03;2.03;;;;;;;22.22;100.00;99813.13;5032502;28;20404;-74
2023/07/31 01:52:06;;;;;;;3.40;2.00;;;;;;;21.95;100.00;99809.28;5050355;28;20123;-74
2023/07/31 01:54:33;;;;;;;4.50;2.25;;;;;;;22.12;100.00;99847.66;5050766;28;20484;-74
2023/07/31 01:56:58;;;;;;;4.88;2.03;;;;;;;21.72;100.00;99787.75;5033109;28;20029;-74
2023/07/31 01:59:24;;;;;;;2.53;2.08;;;;;;;21.72;100.00;99795.50;5051166;28;20040;-72
2023/07/31 02:01:49;;;;;;;2.35;1.85;;;;;;;22.13;100.00;99860.47;5050549;28;20025;-75
2023/07/31 02:04:15;;;;;;;4.63;2.10;;;;;;;22.17;100.00;99848.94;5050500;28;20036;-74
2023/07/31 02:06:40;;;;;;;3.30;1.98;;;;;;;21.80;100.00;99819.03;5051196;28;20032;-73
2023/07/31 02:09:05;;;;;;;2.85;2.08;;;;;;;21.81;100.00;99843.19;5050577;28;20510;-73
2023/07/31 02:11:31;;;;;;;2.88;1.98;;;;;;;21.39;100.00;99785.13;5050689;28;20044;-73
2023/07/31 02:13:56;;;;;;;3.63;2.17;;;;;;;21.50;100.00;99788.56;5050985;28;20431;-74
2023/07/31 02:16:22;;;;;;;3.80;2.00;;;;;;;21.59;100.00;99798.19;5050596;28;20021;-75
2023/07/31 02:18:47;;;;;;;4.55;2.13;;;;;;;21.74;100.00;99849.72;5032652;28;20079;-73
2023/07/31 02:21:12;;;;;;;4.45;2.25;;;;;;;21.69;100.00;99819.00;5049971;28;20427;-74
2023/07/31 02:23:38;;;;;;;3.13;1.92;;;;;;;21.87;100.00;99869.41;5050885;28;20415;-74
2023/07/31 02:26:03;;;;;;;5.38;2.22;;;;;;;21.48;100.00;99811.13;5050224;28;20392;-74
2023/07/31 02:28:29;;;;;;;2.33;2.08;;;;;;;21.92;100.00;99871.66;5032502;28;20415;-73
2023/07/31 02:30:55;;;;;;;3.10;1.95;;;;;;;21.76;100.00;99825.38;5050628;28;20136;-74
2023/07/31 02:33:20;;;;;;;2.90;2.25;;;;;;;21.85;100.00;99850.59;5065676;28;20486;-76
2023/07/31 02:35:46;;;;;;;4.55;1.80;;;;;;;21.91;100.00;99849.28;5070163;28;20477;-74
2023/07/31 02:38:11;;;;;;;6.32;2.45;;;;;;;22.12;100.00;99895.13;5052993;28;20535;-73
2023/07/31 02:40:37;;;;;;;2.95;2.15;;;;;;;21.71;100.00;99822.31;5073445;28;20036;-73
2023/07/31 02:43:02;;;;;;;3.35;2.10;;;;;;;22.24;100.00;99914.88;5073665;28;20115;-73
2023/07/31 02:45:27;;;;;;;3.80;2.08;;;;;;;22.27;100.00;99919.81;5073846;28;20025;-73
2023/07/31 02:47:53;;;;;;;2.80;2.00;;;;;;;22.06;100.00;99915.47;5073961;28;20098;-73
2023/07/31 02:50:18;;;;;;;2.60;2.00;;;;;;;22.36;100.00;99923.47;5073237;28;20131;-74
2023/07/31 02:52:44;;;;;;;2.95;2.03;;;;;;;22.02;100.00;99917.47;5073523;28;20028;-72
2023/07/31 02:55:09;;;;;;;2.75;2.10;;;;;;;21.99;100.00;99868.50;5055769;28;20035;-73
2023/07/31 02:57:34;;;;;;;5.25;1.90;;;;;;;21.96;100.00;99879.09;5073193;28;20028;-72
2023/07/31 03:00:00;;;;;;;2.50;2.25;;;;;;;22.14;100.00;99924.31;5072857;28;20484;-74
2023/07/31 03:02:25;;;;;;;4.65;2.25;;;;;;;21.83;100.00;99887.91;5072706;28;20032;-73
2023/07/31 03:04:51;;;;;;;4.18;2.55;;;;;;;21.85;100.00;99904.16;5073663;28;20033;-73
2023/07/31 03:07:16;;;;;;;4.63;2.35;;;;;;;22.00;100.00;99937.47;5072953;28;20094;-72
2023/07/31 03:09:42;;;;;;;5.78;2.63;;;;;;;21.34;100.00;99895.88;5073057;28;20393;-74
2023/07/31 03:12:07;;;;;;;3.15;2.22;;;;;;;21.65;100.00;99948.78;5073651;28;20025;-73
2023/07/31 03:14:33;;;;;;;4.07;2.83;;;;;;;21.52;100.00;99885.00;5055697;28;20031;-75
2023/07/31 03:16:59;;;;;;;3.10;2.40;;;;;;;21.88;100.00;99977.25;5073453;28;20082;-73
2023/07/31 03:19:25;;;;;;;4.57;2.33;;;;;;;21.42;100.00;99925.44;5072766;28;20033;-72
2023/07/31 03:21:50;;;;;;;2.70;2.17;;;;;;;21.49;100.00;99967.22;5071931;28;20036;-73
2023/07/31 03:24:15;;;;;;;4.13;2.47;;;;;;;21.50;100.00;99955.91;5066546;28;20035;-73
2023/07/31 03:26:43;;;;;;;3.83;2.35;;;;;;;21.57;100.00;100006.25;5053046;28;20396;-77
2023/07/31 03:29:09;;;;;;;3.40;2.20;;;;;;;21.34;100.00;99968.31;5053485;28;20033;-73
2023/07/31 03:31:34;;;;;;;3.53;2.35;;;;;;;21.48;100.00;100019.88;5045497;28;20055;-73
2023/07/31 03:34:00;;;;;;;4.25;2.38;;;;;;;21.67;100.00;100053.03;5073077;28;20032;-75
2023/07/31 03:36:25;;;;;;;5.93;2.45;;;;;;;21.33;100.00;100023.59;5057866;28;20025;-71
2023/07/31 03:38:52;;;;;;;2.60;2.13;;;;;;;21.53;100.00;100035.91;5053041;28;20032;-74
2023/07/31 03:41:17;;;;;;;3.47;2.30;;;;;;;21.94;100.00;100108.84;5055740;28;20038;-73
2023/07/31 03:43:42;;;;;;;4.22;2.20;;;;;;;22.04;100.00;100124.53;5072722;28;20020;-73
2023/07/31 03:46:08;;;;;;;2.85;2.35;;;;;;;22.34;100.00;100133.47;5072786;28;20116;-73
2023/07/31 03:48:33;;;;;;;4.10;2.20;;;;;;;22.07;100.00;100093.22;5071218;28;20040;-73
2023/07/31 03:50:59;;;;;;;6.57;2.40;;;;;;;22.09;100.00;100093.94;5072359;28;20048;-72
2023/07/31 03:53:24;;;;;;;3.50;2.22;;;;;;;22.17;100.00;100120.94;5071888;28;20502;-72
2023/07/31 03:55:49;;;;;;;4.85;2.53;;;;;;;22.55;100.00;100125.03;5072310;28;20041;-74
2023/07/31 03:58:15;;;;;;;5.93;3.08;;;;;;;22.43;100.00;100132.78;5072300;28;20104;-73
2023/07/31 04:00:40;;;;;;;6.50;2.90;;;;;;;22.39;100.00;100128.78;5072107;28;20041;-73
2023/07/31 04:03:06;;;;;;;8.00;3.30;;;;;;;22.20;100.00;100100.00;5053858;28;20495;-73
2023/07/31 04:05:32;;;;;;;7.15;2.95;;;;;;;22.56;100.00;100144.84;5053798;28;20478;-73
2023/07/31 04:07:57;;;;;;;4.60;2.67;;;;;;;22.66;100.00;100149.25;5071805;28;20032;-73
2023/07/31 04:10:23;;;;;;;4.43;2.35;;;;;;;22.62;100.00;100152.19;5071723;28;20414;-73
2023/07/31 04:12:48;;;;;;;3.92;2.30;;;;;;;22.92;100.00;100139.47;5053974;28;20479;-72
2023/07/31 04:15:14;;;;;;;3.72;2.30;;;;;;;22.67;100.00;100135.34;5053518;28;20521;-73
2023/07/31 04:17:39;;;;;;;5.05;2.88;;;;;;;22.86;100.00;100135.59;5064757;28;20033;-72
2023/07/31 04:20:05;;;;;;;3.95;2.63;;;;;;;22.33;100.00;100095.53;5038826;28;20479;-70
2023/07/31 04:22:31;;;;;;;4.88;2.58;;;;;;;22.52;100.00;100105.38;5031544;28;20026;-71
2023/07/31 04:24:56;;;;;;;5.15;3.35;;;;;;;23.10;100.00;100143.25;5034073;28;20075;-72
2023/07/31 04:27:22;;;;;;;6.97;3.40;;;;;;;22.89;100.00;100131.94;5031430;28;20079;-69
2023/07/31 04:29:47;;;;;;;7.57;4.30;;;;;;;23.02;100.00;100140.44;5035604;28;20060;-69
2023/07/31 04:32:15;;;;;;;6.80;4.82;;;;;;;22.67;100.00;100088.69;5039249;28;20084;-69
2023/07/31 04:34:41;;;;;;;10.88;5.13;;;;;;;23.00;100.00;100126.75;5031818;28;20033;-70
2023/07/31 04:37:06;;;;;;;5.60;3.85;;;;;;;23.23;100.00;100137.00;5013714;28;20064;-73
2023/07/31 04:39:31;;;;;;;6.45;3.33;;;;;;;22.98;100.00;100118.28;5031025;28;20091;-71
2023/07/31 04:41:57;;;;;;;6.60;2.88;;;;;;;22.76;100.00;100074.19;5020415;28;20029;-71
2023/07/31 04:44:22;;;;;;;5.88;2.45;;;;;;;22.77;100.00;100071.47;5050851;28;20037;-70
2023/07/31 04:46:48;;;;;;;4.68;2.83;;;;;;;23.29;100.00;100130.53;5050061;28;20033;-73
2023/07/31 04:49:13;;;;;;;3.67;2.38;;;;;;;23.29;100.00;100113.19;5033664;28;20123;-77
2023/07/31 04:51:38;;;;;;;4.45;2.42;;;;;;;22.61;100.00;100049.44;5069915;28;20076;-77
2023/07/31 04:54:04;;;;;;;3.85;2.22;;;;;;;22.80;100.00;100053.09;5071927;28;20024;-79
2023/07/31 04:56:29;;;;;;;5.15;2.10;;;;;;;22.88;100.00;100063.69;5054334;28;20033;-75
2023/07/31 04:58:54;;;;;;;2.67;2.10;;;;;;;23.12;100.00;100060.94;5072085;28;20464;-77
2023/07/31 05:01:20;;;;;;;4.70;2.30;;;;;;;23.30;100.00;100114.00;5071624;28;20036;-77
2023/07/31 05:03:45;;;;;;;8.10;5.32;;;;;;;23.29;100.00;100117.56;5072330;28;20465;-79
2023/07/31 05:06:12;;;;;;;7.97;6.57;;;;;;;22.89;100.00;100083.50;5071602;28;20033;-76
2023/07/31 05:08:37;;;;;;;8.73;5.88;;;;;;;22.77;100.00;100063.72;5053799;28;20028;-77
2023/07/31 05:11:03;;;;;;;8.32;5.65;;;;;;;23.28;100.00;100111.53;5054470;28;20174;-80
2023/07/31 05:13:28;;;;;;;11.82;8.07;;;;;;;22.75;100.00;100065.59;5054922;28;20059;-76
2023/07/31 05:15:54;;;;;;;15.27;10.98;;;;;;;22.96;100.00;100102.00;5072124;28;20463;-77
2023/07/31 05:18:19;;;;;;;10.05;4.07;;;;;;;22.63;100.00;100069.13;5071791;28;20036;-78
2023/07/31 05:20:44;;;;;;;8.95;2.97;;;;;;;22.80;100.00;100120.50;5072155;28;20033;-80
2023/07/31 05:23:10;;;;;;;5.63;2.90;;;;;;;22.96;100.00;100126.19;5071441;28;20033;-77
2023/07/31 05:25:35;;;;;;;3.83;2.30;;;;;;;22.75;100.00;100124.38;5071619;28;20469;-80
2023/07/31 05:28:01;;;;;;;3.08;2.00;;;;;;;22.52;100.00;100089.00;5071809;28;20024;-79
2023/07/31 05:30:26;;;;;;;6.78;2.15;;;;;;;22.57;100.00;100105.00;5073116;28;20056;-79
2023/07/31 05:32:52;;;;;;;4.80;2.33;;;;;;;22.53;100.00;100090.63;5071447;28;20418;-81
2023/07/31 05:35:17;;;;;;;5.72;2.33;;;;;;;22.96;100.00;100159.06;5071911;28;20028;-79
2023/07/31 05:37:43;;;;;;;5.38;2.30;;;;;;;22.50;100.00;100117.63;5071950;28;20033;-80
2023/07/31 05:40:08;;;;;;;7.20;2.60;;;;;;;22.82;100.00;100157.53;5071746;28;20082;-80
2023/07/31 05:42:35;;;;;;;8.00;2.60;;;;;;;23.18;100.00;100167.69;5072134;28;20086;-80
2023/07/31 05:45:00;;;;;;;5.15;3.00;;;;;;;22.74;100.00;100167.63;5053994;28;20025;-80
2023/07/31 05:47:26;;;;;;;6.70;3.17;;;;;;;23.21;100.00;100190.00;5072078;28;20040;-73
2023/07/31 05:49:52;;;;;;;9.77;3.20;;;;;;;22.82;100.00;100148.94;5072468;28;20036;-80
2023/07/31 05:52:19;;;;;;;5.85;3.20;;;;;;;23.22;100.00;100210.63;5072016;28;20107;-82
2023/07/31 05:54:45;;;;;;;7.22;4.47;;;;;;;23.46;100.00;100210.53;5054224;28;20123;-79
2023/07/31 05:57:11;;;;;;;11.98;9.25;;;;;;;22.57;100.00;100146.47;5053878;28;20032;-77
2023/07/31 05:59:37;;;;;;;12.45;7.95;;;;;;;23.13;100.00;100187.16;5071272;28;20147;-76
2023/07/31 06:02:02;;;;;;;9.63;7.78;;;;;;;23.00;100.00;100147.50;5071354;28;20028;-80
2023/07/31 06:04:28;;;;;;;13.02;7.70;;;;;;;23.26;100.00;100216.41;5071398;28;20051;-81
2023/07/31 06:06:53;;;;;;;10.35;7.75;;;;;;;22.94;100.00;100153.16;5071797;28;20398;-81
2023/07/31 06:09:20;;;;;;;11.70;6.80;;;;;;;22.91;100.00;100151.66;5071513;28;20463;-79
2023/07/31 06:11:45;;;;;;;17.38;10.77;;;;;;;23.24;100.00;100198.34;5071570;28;20038;-79
2023/07/31 06:14:11;;;;;;;23.08;14.15;;;;;;;23.33;100.00;100214.19;5075324;28;20033;-79
2023/07/31 06:16:36;;;;;;;30.08;19.25;;;;;;;23.04;100.00;100154.94;5075266;28;20060;-79
2023/07/31 06:19:02;;;;;;;35.70;18.58;;;;;;;23.22;100.00;100153.53;5075258;28;20403;-77
2023/07/31 06:21:27;;;;;;;27.45;17.23;;;;;;;23.10;100.00;100148.47;5057820;28;20119;-78
2023/07/31 06:23:53;;;;;;;22.15;12.32;;;;;;;23.25;100.00;100206.97;5075585;28;20024;-78
2023/07/31 06:26:18;;;;;;;24.20;13.82;;;;;;;23.10;100.00;100210.72;5057593;28;20024;-79
2023/07/31 06:28:44;;;;;;;23.67;12.77;;;;;;;22.62;100.00;100132.25;5074925;28;20040;-80
2023/07/31 06:31:09;;;;;;;17.27;9.05;;;;;;;23.25;100.00;100228.53;5074596;28;20066;-79
2023/07/31 06:33:35;;;;;;;10.93;7.00;;;;;;;23.04;100.00;100193.03;5074955;28;20103;-78
2023/07/31 06:36:00;;;;;;;15.40;5.97;;;;;;;23.08;100.00;100200.47;5075590;28;20028;-78
2023/07/31 06:38:27;;;;;;;12.57;6.13;;;;;;;23.16;100.00;100216.28;5056972;28;20033;-80
2023/07/31 06:40:52;;;;;;;14.30;7.93;;;;;;;22.99;100.00;100183.03;5075152;28;20055;-79
2023/07/31 06:43:18;;;;;;;15.73;7.45;;;;;;;23.57;100.00;100275.44;5075063;28;20029;-78
2023/07/31 06:45:44;;;;;;;13.18;7.00;;;;;;;23.26;100.00;100284.72;5074973;28;20033;-80
2023/07/31 06:48:09;;;;;;;15.73;6.93;;;;;;;23.46;100.00;100295.38;5074641;28;20106;-78
2023/07/31 06:50:35;;;;;;;13.38;6.40;;;;;;;22.81;100.00;100266.56;5074520;28;20060;-78
2023/07/31 06:53:00;;;;;;;13.93;6.90;;;;;;;22.64;100.00;100246.25;5074945;28;20437;-80
2023/07/31 06:55:27;;;;;;;14.13;7.25;;;;;;;22.78;100.00;100319.47;5075080;28;20070;-79
2023/07/31 06:57:54;;;;;;;14.05;7.53;;;;;;;22.89;100.00;100456.16;5074327;28;20082;-80
2023/07/31 07:00:21;;;;;;;12.65;7.00;;;;;;;22.69;100.00;100474.88;5074611;28;20038;-79
2023/07/31 07:02:47;;;;;;;13.93;6.88;;;;;;;22.60;100.00;100569.66;5057061;28;20024;-78
2023/07/31 07:05:13;;;;;;;16.58;6.97;;;;;;;22.48;100.00;100627.53;5074858;28;20029;-78
2023/07/31 07:07:39;;;;;;;9.88;6.40;;;;;;;22.44;100.00;100722.78;5073951;28;20473;-78
2023/07/31 07:10:05;;;;;;;5.95;5.10;;;;;;;22.48;100.00;100836.66;5074157;28;20029;-77
2023/07/31 07:12:31;;;;;;;8.43;5.45;;;;;;;22.25;100.00;100848.44;5075047;28;20024;-78
2023/07/31 07:15:00;;;;;;;8.95;6.32;;;;;;;22.49;100.00;100935.06;5075046;28;20086;-78
2023/07/31 07:17:27;;;;;;;10.15;7.00;;;;;;;22.52;100.00;100978.13;5074341;28;20032;-78
2023/07/31 07:19:52;;;;;;;9.18;7.38;;;;;;;22.35;100.00;100968.75;5074785;28;20033;-79
2023/07/31 07:22:18;;;;;;;8.43;6.90;;;;;;;22.10;100.00;100978.94;5074979;28;20032;-79
2023/07/31 07:24:44;;;;;;;9.38;8.10;;;;;;;22.08;100.00;100992.00;5074031;28;20032;-79
2023/07/31 07:27:09;;;;;;;12.98;7.85;;;;;;;21.91;100.00;101007.69;5056980;28;20028;-79
2023/07/31 07:29:34;;;;;;;9.05;8.10;;;;;;;22.24;100.00;101065.28;5056478;28;20032;-78
2023/07/31 07:32:00;;;;;;;10.85;7.75;;;;;;;22.25;100.00;101128.31;5074333;28;20119;-79
2023/07/31 07:34:26;;;;;;;10.52;8.40;;;;;;;22.29;100.00;101255.06;5074296;28;20150;-78
2023/07/31 07:36:52;;;;;;;13.30;9.30;;;;;;;22.21;100.00;101266.78;5056340;28;20093;-78
2023/07/31 07:39:17;;;;;;;13.18;9.32;;;;;;;22.43;100.00;101129.84;5073402;28;20033;-79
2023/07/31 07:41:42;;;;;;;13.73;10.50;;;;;;;22.22;100.00;101061.13;5073389;28;20033;-79
2023/07/31 07:44:08;;;;;;;12.30;10.55;;;;;;;21.84;100.00;100964.09;5073428;28;20506;-79
2023/07/31 07:46:34;;;;;;;16.25;11.27;;;;;;;22.06;100.00;100962.75;5073913;28;20028;-75
2023/07/31 07:48:59;;;;;;;17.48;10.98;;;;;;;21.93;100.00;100907.41;5091603;28;20025;-79
2023/07/31 07:51:25;;;;;;;13.48;9.43;;;;;;;21.64;100.00;101151.63;5073330;28;20087;-77
2023/07/31 07:53:50;;;;;;;11.18;8.18;;;;;;;21.91;100.00;101318.50;5073505;28;20033;-80
2023/07/31 07:56:16;;;;;;;10.93;7.43;;;;;;;21.91;100.00;101670.78;5055939;28;20036;-81
2023/07/31 07:58:41;;;;;;;15.50;9.85;;;;;;;21.41;100.00;101760.31;5073664;28;20111;-79
2023/07/31 08:01:07;;;;;;;17.17;10.07;;;;;;;21.67;100.00;102564.59;5055836;28;20476;-78
2023/07/31 08:03:32;;;;;;;12.73;10.13;;;;;;;21.77;100.00;102649.69;5073550;28;20032;-79
2023/07/31 08:05:59;;;;;;;11.93;10.23;;;;;;;21.09;100.00;102296.44;5073535;28;20025;-80
2023/07/31 08:08:24;;;;;;;13.38;10.35;;;;;;;21.61;100.00;102373.13;5055579;28;20032;-80
2023/07/31 08:10:50;;;;;;;16.58;13.18;;;;;;;21.98;100.00;102356.25;5054855;28;20025;-80
2023/07/31 08:13:15;;;;;;;17.60;12.55;;;;;;;21.92;100.00;102306.38;5055010;28;20494;-79
2023/07/31 08:15:41;;;;;;;15.55;11.65;;;;;;;21.60;100.00;102170.28;5055249;28;20047;-79
2023/07/31 08:18:07;;;;;;;14.32;11.02;;;;;;;21.26;100.00;101848.94;5073872;28;20029;-78
2023/07/31 08:20:32;;;;;;;17.23;11.85;;;;;;;21.98;100.00;101943.38;5055791;28;20097;-79
2023/07/31 08:22:58;;;;;;;14.45;12.23;;;;;;;22.22;100.00;101900.84;5073265;28;20486;-78
2023/07/31 08:25:23;;;;;;;15.27;11.50;;;;;;;22.28;100.00;101654.31;5073247;28;20028;-77
2023/07/31 08:27:49;;;;;;;13.93;11.05;;;;;;;22.29;100.00;101273.22;5072427;28;20036;-76
2023/07/31 08:30:14;;;;;;;13.65;10.40;;;;;;;22.30;100.00;101308.56;5055178;28;20427;-75
2023/07/31 08:32:39;;;;;;;12.05;9.25;;;;;;;22.70;100.00;101296.00;5055442;28;20119;-79
2023/07/31 08:35:05;;;;;;;12.88;8.80;;;;;;;22.31;100.00;101193.63;5072627;28;20082;-78
2023/07/31 08:37:30;;;;;;;11.43;8.70;;;;;;;22.78;100.00;101145.97;5072953;28;20090;-79
2023/07/31 08:39:56;;;;;;;9.95;8.95;;;;;;;22.68;100.00;101101.56;5072453;28;20025;-78
2023/07/31 08:42:22;;;;;;;10.23;9.23;;;;;;;22.82;100.00;101031.53;5072203;28;20060;-77
2023/07/31 08:44:48;;;;;;;11.77;10.23;;;;;;;23.12;100.00;100988.13;5073000;28;20036;-79
2023/07/31 08:47:15;;;;;;;11.90;9.95;;;;;;;23.57;100.00;100941.97;5072066;28;20099;-77
2023/07/31 08:49:42;;;;;;;10.75;9.65;;;;;;;23.51;100.00;100828.94;5054503;28;20028;-77
2023/07/31 08:52:07;;;;;;;11.18;9.73;;;;;;;23.89;100.00;100831.50;5072822;28;20063;-77
2023/07/31 08:54:33;;;;;;;12.55;10.55;;;;;;;23.51;100.00;100797.78;5072095;28;20123;-76
2023/07/31 08:57:00;;;;;;;10.68;9.57;;;;;;;23.70;100.00;100842.34;5071720;28;20028;-78
2023/07/31 08:59:29;;;;;;;9.60;8.60;;;;;;;23.99;100.00;100828.16;5054615;28;20098;-76
2023/07/31 09:01:56;;;;;;;11.43;10.27;;;;;;;24.08;100.00;100855.31;5072015;28;20070;-76
2023/07/31 09:04:22;;;;;;;10.68;9.68;;;;;;;24.24;100.00;100847.28;5072201;28;20099;-76
2023/07/31 09:06:48;;;;;;;12.38;9.98;;;;;;;23.93;100.00;100789.63;5072067;28;20036;-76
2023/07/31 09:09:15;;;;;;;11.55;10.45;;;;;;;24.06;100.00;100823.41;5072179;28;20035;-77
2023/07/31 09:11:40;;;;;;;12.85;11.27;;;;;;;23.51;100.00;100740.66;5072026;28;20032;-74
2023/07/31 09:14:08;;;;;;;13.88;10.73;;;;;;;24.52;100.00;100724.75;5071880;28;20442;-76
2023/07/31 09:16:34;;;;;;;14.70;11.77;;;;;;;23.90;100.00;100620.13;5054034;28;20032;-76
2023/07/31 09:19:01;;;;;;;12.80;11.05;;;;;;;24.76;100.00;100736.78;5053817;28;20419;-80
2023/07/31 09:21:27;;;;;;;11.50;10.43;;;;;;;25.37;100.00;100745.16;5071916;28;20036;-76
2023/07/31 09:23:54;;;;;;;12.95;10.43;;;;;;;25.53;100.00;100766.50;5071917;28;20029;-74
2023/07/31 09:26:36;;;;;;;11.68;10.57;;;;;;;25.69;100.00;100929.34;5071382;28;20100;-75
2023/07/31 09:29:04;;;;;;;12.40;11.15;;;;;;;25.08;100.00;100949.63;4715326;28;10000168;-74
2023/07/31 09:31:43;;;;;;;13.27;11.95;;;;;;;25.14;100.00;100968.19;5067480;28;20063;-77
2023/07/31 09:34:10;;;;;;;12.82;11.57;;;;;;;25.21;100.00;100947.78;5067622;28;20123;-75
2023/07/31 09:36:47;;;;;;;12.50;11.32;;;;;;;25.64;100.00;101022.69;5067926;28;20024;-75
2023/07/31 09:39:14;;;;;;;12.32;10.88;;;;;;;25.08;100.00;100997.28;5067061;28;20048;-75
2023/07/31 09:41:42;;;;;;;12.23;11.13;;;;;;;24.87;100.00;100971.03;5067683;28;20458;-76
2023/07/31 09:44:07;;;;;;;12.85;11.55;;;;;;;25.93;100.00;101116.94;5068173;28;20035;-75
2023/07/31 09:46:35;;;;;;;12.60;11.50;;;;;;;26.98;100.00;101337.88;5068160;28;20024;-78
2023/07/31 09:49:19;;;;;;;12.45;11.18;;;;;;;27.19;100.00;101707.28;5053662;28;20033;-75
2023/07/31 09:51:44;;;;;;;12.45;11.35;;;;;;;26.57;100.00;101685.41;5068475;28;20080;-74
2023/07/31 09:54:12;;;;;;;11.75;10.65;;;;;;;27.66;100.00;101862.59;5074652;28;20123;-74
2023/07/31 09:56:48;;;;;;;12.85;11.75;;;;;;;27.29;100.00;101742.28;5056661;28;20028;-73
2023/07/31 09:59:18;;;;;;;12.07;11.00;;;;;;;27.87;100.00;101833.16;5069639;28;20112;-73
2023/07/31 10:01:48;;;;;;;12.33;11.23;;;;;;;27.63;100.00;101596.13;5074160;28;20540;-73
2023/07/31 10:04:14;;;;;;;11.65;10.60;;;;;;;28.03;100.00;101076.91;5074773;28;20040;-73
2023/07/31 10:06:42;;;;;;;11.43;10.40;;;;;;;28.45;100.00;100816.78;5074500;28;20020;-73
2023/07/31 10:09:11;;;;;;;11.57;10.57;;;;;;;26.93;100.00;100733.38;5074134;28;20024;-72
2023/07/31 10:11:44;;;;;;;11.65;10.65;;;;;;;27.35;100.00;100850.81;5074221;28;20478;-73
2023/07/31 10:14:11;;;;;;;10.80;9.85;;;;;;;28.62;100.00;101090.25;5073604;28;20086;-73
2023/07/31 10:16:39;;;;;;;11.40;10.50;;;;;;;28.22;100.00;101713.78;5074057;28;20067;-73
2023/07/31 10:19:07;;;;;;;11.05;9.98;;;;;;;28.08;100.00;101770.66;5074009;28;20516;-72
2023/07/31 10:21:34;;;;;;;11.70;10.70;;;;;;;27.35;100.00;101840.34;5073938;28;20032;-73
2023/07/31 10:24:03;;;;;;;10.25;9.35;;;;;;;27.77;100.00;101986.44;5055888;28;20040;-73
2023/07/31 10:26:30;;;;;;;10.93;9.90;;;;;;;28.24;100.00;101967.53;5056247;28;20035;-74
2023/07/31 10:28:57;;;;;;;10.82;9.82;;;;;;;28.32;100.00;101852.66;5055469;28;20477;-73
2023/07/31 10:31:24;;;;;;;10.80;9.90;;;;;;;27.41;100.00;101856.44;5073480;28;20032;-73
2023/07/31 10:33:51;;;;;;;10.90;9.90;;;;;;;27.66;100.00;101871.28;5055979;28;20119;-73
2023/07/31 10:36:20;;;;;;;10.02;9.20;;;;;;;28.86;100.00;101871.38;5074332;28;20031;-73
2023/07/31 10:38:49;;;;;;;9.63;8.70;;;;;;;28.69;100.00;101799.28;5055952;28;20087;-75
2023/07/31 10:41:14;;;;;;;10.40;9.40;;;;;;;28.72;100.00;101778.09;5055737;28;20032;-74
2023/07/31 10:43:40;;;;;;;10.23;9.32;;;;;;;28.18;100.00;101745.50;5056071;28;20066;-75
2023/07/31 10:46:12;;;;;;;15.27;13.95;;;;;;;28.82;100.00;101768.59;5074555;28;20035;-74
2023/07/31 10:48:41;;;;;;;14.88;13.40;;;;;;;28.83;100.00;101683.81;5073921;28;20028;-74
2023/07/31 10:51:12;;;;;;;12.07;11.07;;;;;;;28.03;100.00;101682.03;5073609;28;20045;-75
2023/07/31 10:53:38;;;;;;;12.00;10.90;;;;;;;28.47;100.00;101718.00;5073746;28;20039;-72
2023/07/31 10:56:15;;;;;;;13.63;12.38;;;;;;;29.94;100.00;101758.03;5073662;28;20037;-74
2023/07/31 10:58:44;;;;;;;10.48;9.48;;;;;;;29.19;100.00;101627.75;5051172;28;20031;-73
2023/07/31 11:01:09;;;;;;;10.38;9.52;;;;;;;29.07;100.00;101560.53;5073960;28;20032;-73
2023/07/31 11:03:46;;;;;;;11.60;10.40;;;;;;;30.01;100.00;101598.25;5074247;28;20030;-74
2023/07/31 11:06:12;;;;;;;10.30;9.30;;;;;;;29.43;100.00;101501.72;5056136;28;20119;-73
2023/07/31 11:08:43;;;;;;;10.55;9.55;;;;;;;29.52;100.00;101435.38;5055951;28;20106;-74
2023/07/31 11:11:10;;;;;;;10.02;9.13;;;;;;;30.13;100.00;101410.84;5074148;28;20029;-73